createdAt,value
2019-05-09T00:01:03.913Z,22.1
2019-05-09T00:04:10.168Z,22.1
2019-05-09T00:07:18.407Z,22
2019-05-09T00:10:38.331Z,22
2019-05-09T00:13:50.217Z,21.9
2019-05-09T00:16:58.732Z,21.9
2019-05-09T00:20:07.505Z,21.8
2019-05-09T00:23:13.730Z,21.8
2019-05-09T00:26:19.896Z,21.8
2019-05-09T00:29:28.648Z,21.8
2019-05-09T00:32:37.400Z,21.8
2019-05-09T00:35:44.181Z,21.8
2019-05-09T00:38:50.661Z,21.7
2019-05-09T00:41:59.283Z,21.7
2019-05-09T00:45:07.712Z,21.7
2019-05-09T00:48:14.137Z,21.7
2019-05-09T00:51:20.410Z,21.7
2019-05-09T00:54:28.966Z,21.7
2019-05-09T00:57:37.264Z,21.6
2019-05-09T01:00:44.001Z,21.6
2019-05-09T01:03:50.385Z,21.6
2019-05-09T01:06:59.082Z,21.6
2019-05-09T01:10:07.806Z,21.6
2019-05-09T01:13:14.250Z,21.6
2019-05-09T01:16:20.568Z,21.6
2019-05-09T01:19:29.211Z,21.6
2019-05-09T01:22:37.735Z,21.6
2019-05-09T01:25:43.909Z,21.6
2019-05-09T01:28:50.051Z,21.6
2019-05-09T01:31:58.808Z,21.6
2019-05-09T01:35:07.419Z,21.5
2019-05-09T01:38:14.303Z,21.5
2019-05-09T01:41:27.717Z,21.5
2019-05-09T01:44:39.757Z,21.5
2019-05-09T01:47:48.463Z,21.5
2019-05-09T01:50:57.010Z,21.5
2019-05-09T01:54:03.748Z,21.5
2019-05-09T01:57:10.142Z,21.5
2019-05-09T02:00:18.832Z,21.5
2019-05-09T02:03:27.221Z,21.5
2019-05-09T02:06:33.397Z,21.5
2019-05-09T02:09:39.679Z,21.4
2019-05-09T02:12:49.247Z,21.4
2019-05-09T02:15:57.550Z,21.4
2019-05-09T02:19:04.836Z,21.4
2019-05-09T02:22:13.024Z,21.4
2019-05-09T02:25:19.316Z,21.4
2019-05-09T02:28:28.156Z,21.4
2019-05-09T02:31:35.297Z,21.4
2019-05-09T02:34:44.227Z,21.4
2019-05-09T02:37:50.615Z,21.4
2019-05-09T02:40:59.446Z,21.4
2019-05-09T02:44:08.881Z,21.4
2019-05-09T02:47:17.805Z,21.3
2019-05-09T02:50:24.344Z,21.3
2019-05-09T02:53:38.973Z,21.3
2019-05-09T02:56:48.882Z,21.3
2019-05-09T02:59:55.360Z,21.3
2019-05-09T03:03:04.893Z,21.3
2019-05-09T03:06:14.869Z,21.3
2019-05-09T03:09:24.530Z,21.3
2019-05-09T03:12:35.675Z,21.4
2019-05-09T03:15:45.661Z,21.4
2019-05-09T03:18:58.108Z,21.5
2019-05-09T03:22:04.679Z,21.5
2019-05-09T03:25:14.505Z,21.6
2019-05-09T03:28:24.336Z,21.6
2019-05-09T03:31:33.423Z,21.6
2019-05-09T03:34:43.871Z,21.7
2019-05-09T03:37:52.178Z,21.8
2019-05-09T03:41:00.397Z,21.8
2019-05-09T03:44:07.294Z,21.9
2019-05-09T03:47:13.584Z,21.9
2019-05-09T03:50:21.818Z,21.9
2019-05-09T03:53:28.016Z,21.9
2019-05-09T03:56:34.255Z,21.9
2019-05-09T03:59:42.586Z,22
2019-05-09T04:02:48.855Z,22
2019-05-09T04:05:59.794Z,22
2019-05-09T04:09:11.508Z,22
2019-05-09T04:12:18.180Z,22
2019-05-09T04:15:24.470Z,22
2019-05-09T04:18:32.717Z,22.1
2019-05-09T04:21:43.289Z,22.1
2019-05-09T04:24:51.635Z,22.1
2019-05-09T04:27:58.414Z,22.2
2019-05-09T04:31:04.672Z,22.2
2019-05-09T04:34:13.062Z,-145.7
2019-05-09T04:37:21.392Z,-145.7
2019-05-09T04:40:31.668Z,-145.7
2019-05-09T04:43:53.298Z,-145.7
2019-05-09T04:47:03.470Z,-145.7
2019-05-09T04:50:15.277Z,-145.7
2019-05-09T04:53:32.325Z,-145.7
2019-05-09T04:56:42.579Z,-145.7
2019-05-09T04:59:51.341Z,-145.7
2019-05-09T05:02:57.653Z,-145.7
2019-05-09T05:06:07.654Z,-145.7
2019-05-09T05:09:13.972Z,-145.7
2019-05-09T05:12:24.813Z,-145.7
2019-05-09T05:15:33.432Z,-145.7
2019-05-09T05:18:41.696Z,-145.7
2019-05-09T05:21:48.100Z,-145.7
2019-05-09T05:24:55.760Z,-145.7
2019-05-09T05:28:05.692Z,-145.7
2019-05-09T05:31:14.267Z,-145.7
2019-05-09T05:34:23.003Z,-145.7
2019-05-09T05:37:31.391Z,-145.7
2019-05-09T05:40:44.690Z,-145.7
2019-05-09T05:43:55.095Z,-145.7
2019-05-09T05:47:03.535Z,-145.7
2019-05-09T05:50:12.117Z,-145.7
2019-05-09T05:53:20.943Z,-145.7
2019-05-09T05:56:27.965Z,-145.7
2019-05-09T05:59:38.075Z,-145.7
2019-05-09T06:02:47.833Z,-145.7
2019-05-09T06:05:54.254Z,-145.7
2019-05-09T06:09:02.802Z,-145.7
2019-05-09T06:12:11.498Z,-145.7
2019-05-09T06:15:18.318Z,-145.7
2019-05-09T06:18:24.599Z,-145.7
2019-05-09T06:21:33.186Z,-145.7
2019-05-09T06:24:41.342Z,-145.7
2019-05-09T06:27:51.266Z,-145.7
2019-05-09T06:30:58.443Z,-145.7
2019-05-09T06:34:04.818Z,-145.7
2019-05-09T06:37:13.394Z,-145.7
2019-05-09T06:40:22.239Z,-145.7
2019-05-09T06:43:29.068Z,-145.7
2019-05-09T06:46:38.089Z,-145.7
2019-05-09T06:49:44.235Z,-145.7
2019-05-09T06:52:54.461Z,-145.7
2019-05-09T06:56:03.044Z,-145.7
2019-05-09T06:59:11.233Z,-145.7
2019-05-09T07:02:17.719Z,-145.7
2019-05-09T07:05:23.971Z,-145.7
2019-05-09T07:08:32.440Z,-145.7
2019-05-09T07:11:38.675Z,-145.7
2019-05-09T07:14:44.896Z,-145.7
2019-05-09T07:17:53.751Z,-145.7
2019-05-09T07:21:02.553Z,-145.7
2019-05-09T07:24:08.667Z,-145.7
2019-05-09T07:27:17.962Z,-145.7
2019-05-09T07:30:24.244Z,-145.7
2019-05-09T07:33:33.429Z,-145.7
2019-05-09T07:36:42.921Z,-145.7
2019-05-09T07:39:51.603Z,-145.7
2019-05-09T07:42:58.449Z,-145.7
2019-05-09T07:46:04.828Z,-145.7
2019-05-09T07:49:13.800Z,-145.7
2019-05-09T07:52:22.019Z,-145.7
2019-05-09T07:55:28.330Z,-145.7
2019-05-09T07:58:34.598Z,-145.7
2019-05-09T08:01:45.749Z,-145.7
2019-05-09T08:04:54.476Z,-145.7
2019-05-09T08:08:03.592Z,-145.7
2019-05-09T08:11:12.412Z,-145.7
2019-05-09T08:14:21.239Z,-145.7
2019-05-09T08:17:28.566Z,-145.7
2019-05-09T08:20:40.185Z,-145.7
2019-05-09T08:23:48.480Z,-145.7
2019-05-09T08:26:54.862Z,-145.7
2019-05-09T08:30:03.567Z,-145.7
2019-05-09T08:33:12.210Z,-145.7
2019-05-09T08:36:20.127Z,-145.7
2019-05-09T08:39:27.631Z,-145.7
2019-05-09T08:42:34.084Z,-145.7
2019-05-09T08:45:42.876Z,-145.7
2019-05-09T08:48:51.671Z,-145.7
2019-05-09T08:52:09.816Z,-145.7
2019-05-09T08:55:25.034Z,-145.7
2019-05-09T08:58:33.666Z,-145.7
2019-05-09T09:02:07.688Z,-145.7
2019-05-09T09:05:28.819Z,-145.7
2019-05-09T09:08:37.607Z,-145.7
2019-05-09T09:11:44.399Z,-145.7
2019-05-09T09:14:53.439Z,-145.7
2019-05-09T09:18:02.030Z,-145.7
2019-05-09T09:21:08.416Z,-145.7
2019-05-09T09:24:14.758Z,-145.7
2019-05-09T09:27:23.212Z,-145.7
2019-05-09T09:30:31.923Z,-145.7
2019-05-09T09:33:38.183Z,-145.7
2019-05-09T09:36:44.481Z,-145.7
2019-05-09T09:39:57.934Z,-145.7
2019-05-09T09:43:04.507Z,-145.7
2019-05-09T09:46:14.865Z,-145.7
2019-05-09T09:49:23.809Z,-145.7
2019-05-09T09:52:34.330Z,-145.7
2019-05-09T09:55:47.585Z,-145.7
2019-05-09T09:58:53.999Z,-145.7
2019-05-09T10:02:02.162Z,-145.7
2019-05-09T10:05:13.466Z,-145.7
2019-05-09T10:08:22.267Z,-145.7
2019-05-09T10:11:28.692Z,-145.7
2019-05-09T10:14:34.831Z,-145.7
2019-05-09T10:17:41.273Z,-145.7
2019-05-09T10:20:48.459Z,-145.7
2019-05-09T10:23:54.818Z,-145.7
2019-05-09T10:27:03.405Z,-145.7
2019-05-09T10:30:12.511Z,-145.7
2019-05-09T10:33:21.317Z,-145.7
2019-05-09T10:36:28.015Z,-145.7
2019-05-09T10:39:34.305Z,-145.7
2019-05-09T10:42:43.200Z,-145.7
2019-05-09T10:45:52.030Z,-145.7
2019-05-09T10:48:58.689Z,-145.7
2019-05-09T10:52:05.242Z,-145.7
2019-05-09T10:55:21.034Z,-145.7
2019-05-09T10:58:27.985Z,-145.7
2019-05-09T11:01:34.170Z,-145.7
2019-05-09T11:04:46.202Z,-145.7
2019-05-09T11:07:54.718Z,-145.7
2019-05-09T11:11:05.941Z,-145.7
2019-05-09T11:14:29.382Z,-145.7
2019-05-09T11:17:43.068Z,-145.7
2019-05-09T11:20:51.340Z,-145.7
2019-05-09T11:23:58.241Z,-145.7
2019-05-09T11:27:04.744Z,-145.7
2019-05-09T11:30:13.594Z,-145.7
2019-05-09T11:33:22.087Z,-145.7
2019-05-09T11:36:28.313Z,-145.7
2019-05-09T11:39:38.752Z,-145.7
2019-05-09T11:44:08.446Z,-145.7
2019-05-09T11:47:28.366Z,-145.7
2019-05-09T11:50:51.621Z,-145.7
2019-05-09T11:53:58.177Z,-145.7
2019-05-09T11:57:04.472Z,-145.7
2019-05-09T12:00:12.739Z,-145.7
2019-05-09T12:03:19.021Z,-145.7
2019-05-09T12:06:25.158Z,-145.7
2019-05-09T12:09:34.521Z,-145.7
2019-05-09T12:12:47.779Z,-145.7
2019-05-09T12:15:54.235Z,-145.7
2019-05-09T12:19:03.510Z,-145.7
2019-05-09T12:22:09.764Z,-145.7
2019-05-09T12:25:18.161Z,-145.7
2019-05-09T12:28:24.516Z,-145.7
2019-05-09T12:31:33.347Z,-145.7
2019-05-09T12:34:42.486Z,-145.7
2019-05-09T12:37:51.243Z,-145.7
2019-05-09T12:41:00.465Z,-145.7
2019-05-09T12:44:08.770Z,-145.7
2019-05-09T12:47:15.227Z,-145.7
2019-05-09T12:50:24.147Z,-145.7
2019-05-09T12:53:33.198Z,-145.7
2019-05-09T12:56:39.317Z,-145.7
2019-05-09T12:59:49.727Z,-145.7
2019-05-09T13:03:01.375Z,-145.7
2019-05-09T13:06:08.174Z,-145.7
2019-05-09T13:09:14.628Z,-145.7
2019-05-09T13:12:23.700Z,-145.7
2019-05-09T13:15:33.027Z,-145.7
2019-05-09T13:18:41.636Z,-145.7
2019-05-09T13:21:47.856Z,-145.7
2019-05-09T13:24:54.063Z,-145.7
2019-05-09T13:28:08.191Z,-145.7
2019-05-09T13:31:14.569Z,-145.7
2019-05-09T13:34:23.824Z,-145.7
2019-05-09T13:37:32.695Z,-145.7
2019-05-09T13:40:41.997Z,-145.7
2019-05-09T13:43:58.966Z,-145.7
2019-05-09T13:47:21.095Z,-145.7
2019-05-09T13:50:28.238Z,-145.7
2019-05-09T13:53:34.488Z,-145.7
2019-05-09T13:56:43.207Z,-145.7
2019-05-09T14:00:04.048Z,-145.7
2019-05-09T14:03:13.135Z,-145.7
2019-05-09T14:06:21.984Z,-145.7
2019-05-09T14:09:29.274Z,-145.7
2019-05-09T14:12:38.304Z,-145.7
2019-05-09T14:15:44.610Z,-145.7
2019-05-09T14:18:55.496Z,-145.7
2019-05-09T14:22:54.542Z,-145.7
2019-05-09T14:26:03.189Z,-145.7
2019-05-09T14:29:13.535Z,-145.7
2019-05-09T14:32:26.690Z,-145.7
2019-05-09T14:35:43.870Z,-145.7
2019-05-09T14:38:52.464Z,-145.7
2019-05-09T14:42:01.238Z,-145.7
2019-05-09T14:45:08.406Z,-145.7
2019-05-09T14:48:14.817Z,-145.7
2019-05-09T14:51:23.503Z,-145.7
2019-05-09T14:54:32.305Z,-145.7
2019-05-09T14:57:43.626Z,-145.7
2019-05-09T15:00:52.385Z,-145.7
2019-05-09T15:03:58.897Z,-145.7
2019-05-09T15:07:07.161Z,-145.7
2019-05-09T15:10:13.843Z,-145.7
2019-05-09T15:13:22.544Z,-145.7
2019-05-09T15:16:28.811Z,-145.7
2019-05-09T15:19:34.979Z,-145.7
2019-05-09T15:23:03.793Z,-145.7
2019-05-09T15:26:12.554Z,-145.7
2019-05-09T15:29:21.009Z,-145.7
2019-05-09T15:32:28.402Z,-145.7
2019-05-09T15:35:35.738Z,-145.7
2019-05-09T15:42:38.552Z,-145.7
2019-05-09T15:45:44.987Z,-145.7
2019-05-09T15:48:51.175Z,-145.7
2019-05-09T15:51:58.455Z,-145.7
2019-05-09T15:55:04.746Z,-145.7
2019-05-09T15:58:13.980Z,-145.7
2019-05-09T16:01:23.177Z,-145.7
2019-05-09T16:04:32.257Z,-145.7
2019-05-09T16:07:38.423Z,-145.7
2019-05-09T16:10:44.611Z,-145.7
2019-05-09T16:13:50.912Z,-145.7
2019-05-09T16:16:57.166Z,-145.7
2019-05-09T16:20:03.393Z,-145.7
2019-05-09T16:23:12.210Z,-145.7
2019-05-09T16:26:18.418Z,-145.7
2019-05-09T16:29:24.632Z,-145.7
2019-05-09T16:32:37.693Z,-145.7
2019-05-09T16:35:43.983Z,-145.7
2019-05-09T16:38:58.356Z,-145.7
2019-05-09T16:42:08.224Z,-145.7
2019-05-09T16:45:14.473Z,-145.7
2019-05-09T16:48:23.362Z,-145.7
2019-05-09T16:51:32.186Z,-145.7
2019-05-09T16:54:38.813Z,-145.7
2019-05-09T16:57:45.209Z,-145.7
2019-05-09T17:00:51.436Z,-145.7
2019-05-09T17:03:57.722Z,-145.7
2019-05-09T17:07:03.943Z,-145.7
2019-05-09T17:10:12.288Z,-145.7
2019-05-09T17:13:21.021Z,-145.7
2019-05-09T17:16:28.416Z,-145.7
2019-05-09T17:19:34.820Z,-145.7
2019-05-09T17:22:43.442Z,-145.7
2019-05-09T17:25:51.949Z,-145.7
2019-05-09T17:28:58.218Z,-145.7
2019-05-09T17:32:04.443Z,-145.7
2019-05-09T17:35:13.323Z,-145.7
2019-05-09T17:38:21.766Z,-145.7
2019-05-09T17:41:28.460Z,-145.7
2019-05-09T17:44:34.676Z,-145.7
2019-05-09T17:47:41.505Z,-145.7
2019-05-09T17:50:47.894Z,-145.7
2019-05-09T17:53:54.239Z,-145.7
2019-05-09T17:57:04.729Z,-145.7
2019-05-09T18:00:13.036Z,-145.7
2019-05-09T18:03:28.756Z,-145.7
2019-05-09T18:06:37.703Z,-145.7
2019-05-09T18:09:44.128Z,-145.7
2019-05-09T18:12:52.807Z,-145.7
2019-05-09T18:15:59.089Z,-145.7
2019-05-09T18:19:07.857Z,-145.7
2019-05-09T18:22:14.378Z,-145.7
2019-05-09T18:25:22.919Z,-145.7
2019-05-09T18:28:29.435Z,-145.7
2019-05-09T18:31:37.396Z,-145.7
2019-05-09T18:34:43.585Z,-145.7
2019-05-09T18:37:51.988Z,-145.7
2019-05-09T18:40:58.258Z,-145.7
2019-05-09T18:44:04.513Z,-145.7
2019-05-09T18:47:13.248Z,-145.7
2019-05-09T18:50:21.707Z,-145.7
2019-05-09T18:53:28.035Z,-145.7
2019-05-09T18:56:34.405Z,-145.7
2019-05-09T18:59:40.595Z,-145.7
2019-05-09T19:02:46.843Z,-145.7
2019-05-09T19:05:53.031Z,-145.7
2019-05-09T19:08:59.274Z,-145.7
2019-05-09T19:12:05.463Z,-145.7
2019-05-09T19:15:11.678Z,-145.7
2019-05-09T19:18:17.891Z,-145.7
2019-05-09T19:21:24.240Z,-145.7
2019-05-09T19:24:30.429Z,-145.7
2019-05-09T19:27:36.699Z,-145.7
2019-05-09T19:30:42.916Z,-145.7
2019-05-09T19:33:49.134Z,-145.7
2019-05-09T19:36:55.340Z,-145.7
2019-05-09T19:40:01.641Z,-145.7
2019-05-09T19:43:07.833Z,-145.7
2019-05-09T19:46:13.987Z,-145.7
2019-05-09T19:49:20.147Z,-145.7
2019-05-09T19:52:37.650Z,-145.7
2019-05-09T19:55:47.344Z,-145.7
2019-05-09T19:58:53.629Z,-145.7
2019-05-09T20:01:59.858Z,-145.7
2019-05-09T20:05:06.186Z,-145.7
2019-05-09T20:08:12.391Z,-145.7
2019-05-09T20:11:18.614Z,-145.7
2019-05-09T20:14:24.926Z,-145.7
2019-05-09T20:17:31.290Z,-145.7
2019-05-09T20:20:37.659Z,-145.7
2019-05-09T20:23:44.029Z,-145.7
2019-05-09T20:26:50.357Z,-145.7
2019-05-09T20:29:56.679Z,-145.7
2019-05-09T20:33:02.930Z,-145.7
2019-05-09T20:36:09.243Z,-145.7
2019-05-09T20:39:15.461Z,-145.7
2019-05-09T20:42:21.642Z,-145.7
2019-05-09T20:45:27.817Z,-145.7
2019-05-09T20:48:34.006Z,-145.7
2019-05-09T20:51:40.262Z,-145.7
2019-05-09T20:54:46.394Z,-145.7
2019-05-09T20:57:52.814Z,-145.7
2019-05-09T21:00:58.930Z,-145.7
2019-05-09T21:04:05.217Z,-145.7
2019-05-09T21:07:11.417Z,-145.7
2019-05-09T21:10:17.673Z,-145.7
2019-05-09T21:13:23.938Z,-145.7
2019-05-09T21:16:30.076Z,-145.7
2019-05-09T21:19:36.317Z,-145.7
2019-05-09T21:22:42.602Z,-145.7
2019-05-09T21:25:48.848Z,-145.7
2019-05-09T21:28:55.011Z,-145.7
2019-05-09T21:32:01.104Z,-145.7
2019-05-09T21:35:07.299Z,-145.7
2019-05-09T21:38:13.486Z,-145.7
2019-05-09T21:41:19.653Z,-145.7
2019-05-09T21:44:25.849Z,-145.7
2019-05-09T21:47:32.288Z,-145.7
2019-05-09T21:50:38.503Z,-145.7
2019-05-09T21:53:44.705Z,-145.7
2019-05-09T21:56:50.908Z,-145.7
2019-05-09T21:59:57.083Z,-145.7
2019-05-09T22:03:03.291Z,-145.7
2019-05-09T22:06:09.896Z,-145.7
2019-05-09T22:09:16.828Z,-145.7
2019-05-09T22:12:26.476Z,-145.7
2019-05-09T22:15:33.932Z,-145.7
2019-05-09T22:18:40.250Z,-145.7
2019-05-09T22:21:46.469Z,-145.7
2019-05-09T22:24:52.785Z,-145.7
2019-05-09T22:27:59.010Z,-145.7
2019-05-09T22:31:05.178Z,-145.7
2019-05-09T22:34:11.410Z,-145.7
2019-05-09T22:37:17.610Z,-145.7
2019-05-09T22:40:23.806Z,-145.7
2019-05-09T22:43:30.012Z,-145.7
2019-05-09T22:46:36.260Z,-145.7
2019-05-09T22:49:42.394Z,-145.7
2019-05-09T22:52:48.703Z,-145.7
2019-05-09T22:55:54.863Z,-145.7
2019-05-09T22:59:01.112Z,-145.7
2019-05-09T23:02:07.377Z,-145.7
2019-05-09T23:05:13.595Z,-145.7
2019-05-09T23:08:19.861Z,-145.7
2019-05-09T23:11:26.124Z,-145.7
2019-05-09T23:14:32.427Z,-145.7
2019-05-09T23:17:38.689Z,-145.7
2019-05-09T23:20:44.926Z,-145.7
2019-05-09T23:23:51.144Z,-145.7
2019-05-09T23:26:57.639Z,-145.7
2019-05-09T23:30:03.749Z,-145.7
2019-05-09T23:33:10.011Z,-145.7
2019-05-09T23:36:16.185Z,-145.7
2019-05-09T23:39:22.387Z,-145.7
2019-05-09T23:42:28.561Z,-145.7
2019-05-09T23:45:34.721Z,-145.7
2019-05-09T23:48:41.015Z,-145.7
2019-05-09T23:51:47.298Z,-145.7
2019-05-09T23:54:53.543Z,-145.7
2019-05-09T23:57:59.784Z,-145.7
